General Aviation Weather

Text Reports

Enter one or more of the following location identifiers separated by a space:

Zip Code, Four-Character ICAO or Three-Character IATA airport codes.

METAR - Aviation Routine Weather Report
OIZB - Zabol,
Updated at 12:00 AM GMT on May 23, 2015 (4:30 AM IRDT):
METAR OIZB 230000Z 33018G29KT CAVOK 26/07 Q1009
TAF - Terminal Area Forecast
OIZB - Zabol,
Updated at 12:00 AM GMT on May 23, 2015 (4:30 AM IRDT):
No TAF is currently available for this location.
Decoded:
No decoded TAF is available.
PIREP - Pilot Weather Report
OIZB - Zabol,
Updated at 12:00 AM GMT on May 23, 2015 (4:30 AM IRDT):
No PIREP is currently available for this location.
AIRMET - Airmens Meteorological Information
OIZB - Zabol,
Updated at 12:00 AM GMT on May 23, 2015 (4:30 AM IRDT):
No AIRMET is currently available for this location.
SIGMET - Significant Meteorological Information
OIZB - Zabol,
Updated at 12:00 AM GMT on May 23, 2015 (4:30 AM IRDT):
No SIGMET is currently available for this location.
NOTAM - Notice to Airmen
OIZB - Zabol,
Updated at 12:00 AM GMT on May 23, 2015 (4:30 AM IRDT):
No NOTAM is currently available for this location.
Forecast Area
OIZB - Zabol,
Updated at 12:00 AM GMT on May 23, 2015 (4:30 AM IRDT):
No NOTAM is currently available for this location.
Aviation Weather Maps